createdAt,value
2023-05-14T00:00:47.469Z,7.59
2023-05-14T00:03:29.201Z,7.55
2023-05-14T00:05:56.955Z,7.51
2023-05-14T00:08:24.605Z,7.47
2023-05-14T00:10:52.308Z,7.44
2023-05-14T00:13:19.906Z,7.42
2023-05-14T00:15:47.567Z,7.44
2023-05-14T00:18:15.263Z,7.48
2023-05-14T00:20:42.988Z,7.51
2023-05-14T00:23:10.717Z,7.52
2023-05-14T00:25:38.849Z,7.51
2023-05-14T00:28:06.434Z,7.48
2023-05-14T00:30:35.052Z,7.44
2023-05-14T00:33:02.751Z,7.40
2023-05-14T00:35:30.494Z,7.35
2023-05-14T00:37:58.071Z,7.32
2023-05-14T00:40:26.700Z,7.28
2023-05-14T00:42:54.918Z,7.24
2023-05-14T00:45:22.845Z,7.22
2023-05-14T00:47:50.527Z,7.19
2023-05-14T00:50:18.521Z,7.16
2023-05-14T00:52:46.170Z,7.13
2023-05-14T00:55:16.402Z,7.12
2023-05-14T00:57:44.097Z,7.13
2023-05-14T01:00:12.143Z,7.13
2023-05-14T01:02:39.848Z,7.14
2023-05-14T01:05:07.867Z,7.13
2023-05-14T01:07:52.179Z,7.10
2023-05-14T01:10:52.867Z,7.06
2023-05-14T01:13:59.291Z,7.01
2023-05-14T01:16:27.314Z,6.96
2023-05-14T01:18:55.007Z,6.90
2023-05-14T01:21:40.933Z,6.87
2023-05-14T01:24:08.900Z,6.81
2023-05-14T01:26:36.921Z,6.77
2023-05-14T01:29:15.368Z,6.74
2023-05-14T01:31:43.564Z,6.70
2023-05-14T01:34:11.834Z,6.66
2023-05-14T01:36:39.634Z,6.63
2023-05-14T01:39:09.697Z,6.64
2023-05-14T01:41:37.481Z,6.69
2023-05-14T01:44:05.338Z,6.74
2023-05-14T01:46:33.637Z,6.79
2023-05-14T01:49:01.446Z,6.81
2023-05-14T01:51:29.054Z,6.83
2023-05-14T01:53:56.726Z,6.84
2023-05-14T01:56:25.634Z,6.85
2023-05-14T01:58:53.330Z,6.85
2023-05-14T02:01:21.387Z,6.84
2023-05-14T02:03:49.102Z,6.84
2023-05-14T02:06:16.779Z,6.83
2023-05-14T02:08:44.369Z,6.81
2023-05-14T02:11:12.051Z,6.80
2023-05-14T02:13:39.716Z,6.80
2023-05-14T02:16:07.585Z,6.84
2023-05-14T02:18:35.329Z,6.90
2023-05-14T02:21:03.063Z,6.96
2023-05-14T02:23:40.370Z,7.01
2023-05-14T02:26:10.378Z,7.04
2023-05-14T02:28:38.142Z,7.06
2023-05-14T02:31:05.819Z,7.07
2023-05-14T02:33:33.563Z,7.06
2023-05-14T02:36:01.258Z,7.05
2023-05-14T02:38:28.839Z,7.02
2023-05-14T02:40:56.473Z,6.98
2023-05-14T02:43:24.151Z,6.93
2023-05-14T02:45:51.749Z,6.90
2023-05-14T02:48:19.390Z,6.91
2023-05-14T02:50:49.418Z,6.93
2023-05-14T02:53:17.079Z,6.92
2023-05-14T02:55:44.716Z,6.92
2023-05-14T02:58:12.304Z,6.90
2023-05-14T03:00:39.928Z,6.89
2023-05-14T03:03:08.126Z,6.86
2023-05-14T03:05:36.251Z,6.83
2023-05-14T03:08:03.872Z,6.79
2023-05-14T03:10:32.931Z,6.76
2023-05-14T03:13:00.576Z,6.72
2023-05-14T03:15:28.238Z,6.71
2023-05-14T03:17:55.831Z,6.73
2023-05-14T03:20:24.543Z,6.76
2023-05-14T03:22:52.318Z,6.79
2023-05-14T03:25:20.058Z,6.82
2023-05-14T03:27:47.684Z,6.85
2023-05-14T03:30:15.364Z,6.87
2023-05-14T03:32:43.104Z,6.87
2023-05-14T03:35:10.866Z,6.85
2023-05-14T03:37:38.523Z,6.83
2023-05-14T03:40:07.178Z,6.82
2023-05-14T03:42:34.771Z,6.81
2023-05-14T03:45:02.394Z,6.80
2023-05-14T03:47:30.002Z,6.82
2023-05-14T03:49:57.811Z,6.89
2023-05-14T03:52:25.425Z,6.97
2023-05-14T03:54:53.022Z,7.05
2023-05-14T03:57:21.132Z,7.11
2023-05-14T03:59:48.731Z,7.16
2023-05-14T04:02:16.314Z,7.21
2023-05-14T04:04:44.326Z,7.26
2023-05-14T04:07:12.074Z,7.30
2023-05-14T04:09:39.773Z,7.34
2023-05-14T04:12:07.922Z,7.38
2023-05-14T04:14:35.557Z,7.40
2023-05-14T04:17:03.766Z,7.46
2023-05-14T04:19:31.446Z,7.54
2023-05-14T04:21:59.396Z,7.64
2023-05-14T04:24:26.993Z,7.75
2023-05-14T04:26:54.593Z,7.82
2023-05-14T04:29:22.163Z,7.87
2023-05-14T04:31:49.924Z,7.90
2023-05-14T04:34:17.570Z,7.94
2023-05-14T04:36:45.794Z,7.96
2023-05-14T04:39:13.437Z,7.98
2023-05-14T04:41:41.036Z,8.00
2023-05-14T04:44:09.167Z,8.01
2023-05-14T04:46:36.829Z,8.05
2023-05-14T04:49:04.517Z,8.12
2023-05-14T04:51:32.696Z,8.21
2023-05-14T04:54:00.470Z,8.29
2023-05-14T04:56:28.107Z,8.36
2023-05-14T04:58:55.977Z,8.44
2023-05-14T05:01:23.803Z,8.50
2023-05-14T05:03:51.618Z,8.55
2023-05-14T05:06:19.378Z,8.61
2023-05-14T05:08:46.979Z,8.66
2023-05-14T05:11:14.619Z,8.72
2023-05-14T05:13:42.312Z,8.77
2023-05-14T05:16:09.935Z,8.86
2023-05-14T05:18:37.572Z,8.99
2023-05-14T05:21:05.662Z,9.12
2023-05-14T05:23:33.295Z,9.24
2023-05-14T05:26:00.905Z,9.35
2023-05-14T05:28:28.512Z,9.44
2023-05-14T05:30:56.200Z,9.54
2023-05-14T05:33:23.943Z,9.64
2023-05-14T05:35:52.493Z,9.73
2023-05-14T05:38:20.293Z,9.84
2023-05-14T05:40:48.306Z,9.99
2023-05-14T05:43:16.131Z,10.15
2023-05-14T05:45:44.138Z,10.29
2023-05-14T05:48:11.897Z,10.41
2023-05-14T05:50:39.550Z,10.52
2023-05-14T05:53:07.294Z,10.62
2023-05-14T05:55:35.166Z,10.72
2023-05-14T05:58:02.897Z,10.79
2023-05-14T06:00:31.333Z,10.87
2023-05-14T06:02:59.046Z,10.94
2023-05-14T06:05:27.003Z,11.01
2023-05-14T06:07:54.704Z,11.11
2023-05-14T06:10:22.755Z,11.22
2023-05-14T06:12:50.675Z,11.35
2023-05-14T06:15:21.123Z,11.47
2023-05-14T06:17:48.773Z,11.58
2023-05-14T06:20:16.435Z,11.68
2023-05-14T06:22:44.082Z,11.76
2023-05-14T06:25:11.780Z,11.84
2023-05-14T06:27:39.367Z,11.92
2023-05-14T06:30:07.694Z,11.99
2023-05-14T06:32:35.363Z,12.06
2023-05-14T06:35:03.130Z,12.15
2023-05-14T06:37:30.684Z,12.23
2023-05-14T06:39:58.290Z,12.31
2023-05-14T06:42:26.577Z,12.38
2023-05-14T06:44:54.846Z,12.44
2023-05-14T06:47:22.567Z,12.48
2023-05-14T06:49:50.339Z,12.55
2023-05-14T06:52:17.956Z,12.62
2023-05-14T06:54:45.606Z,12.69
2023-05-14T06:57:13.291Z,12.75
2023-05-14T06:59:41.425Z,12.80
2023-05-14T07:02:08.996Z,12.88
2023-05-14T07:04:36.790Z,12.97
2023-05-14T07:07:05.748Z,13.04
2023-05-14T07:09:33.345Z,13.10
2023-05-14T07:12:00.930Z,13.18
2023-05-14T07:14:28.506Z,13.25
2023-05-14T07:16:56.320Z,13.32
2023-05-14T07:19:23.906Z,13.38
2023-05-14T07:21:51.497Z,13.44
2023-05-14T07:24:19.101Z,13.51
2023-05-14T07:26:46.710Z,13.59
2023-05-14T07:29:14.285Z,13.66
2023-05-14T07:31:41.922Z,13.76
2023-05-14T07:34:11.002Z,13.86
2023-05-14T07:36:38.695Z,13.95
2023-05-14T07:39:06.789Z,14.04
2023-05-14T07:41:34.468Z,14.11
2023-05-14T07:44:02.163Z,14.20
2023-05-14T07:46:29.782Z,14.28
2023-05-14T07:48:57.352Z,14.38
2023-05-14T07:51:28.287Z,14.46
2023-05-14T07:53:55.932Z,14.52
2023-05-14T07:56:23.738Z,14.57
2023-05-14T07:58:51.464Z,14.64
2023-05-14T08:01:19.567Z,14.74
2023-05-14T08:03:47.822Z,14.87
2023-05-14T08:06:15.886Z,14.99
2023-05-14T08:08:43.517Z,15.11
2023-05-14T08:11:11.248Z,15.23
2023-05-14T08:13:38.908Z,15.34
2023-05-14T08:16:07.141Z,15.44
2023-05-14T08:18:34.739Z,15.54
2023-05-14T08:21:03.549Z,15.63
2023-05-14T08:23:31.406Z,15.70
2023-05-14T08:25:59.819Z,15.78
2023-05-14T08:28:27.476Z,15.83
2023-05-14T08:30:55.147Z,15.88
2023-05-14T08:33:22.983Z,15.94
2023-05-14T08:35:53.938Z,16.00
2023-05-14T08:38:21.598Z,16.09
2023-05-14T08:40:50.163Z,16.18
2023-05-14T08:43:19.114Z,16.26
2023-05-14T08:45:46.784Z,16.36
2023-05-14T08:48:14.428Z,16.46
2023-05-14T08:50:43.679Z,16.56
2023-05-14T08:53:11.313Z,16.66
2023-05-14T08:55:39.001Z,16.77
2023-05-14T08:58:06.611Z,16.89
2023-05-14T09:00:34.412Z,17.00
2023-05-14T09:03:02.300Z,17.11
2023-05-14T09:05:29.910Z,17.22
2023-05-14T09:07:57.507Z,17.31
2023-05-14T09:10:26.216Z,17.41
2023-05-14T09:12:54.479Z,17.49
2023-05-14T09:15:22.128Z,17.57
2023-05-14T09:17:49.737Z,17.65
2023-05-14T09:20:17.353Z,17.74
2023-05-14T09:22:44.989Z,17.86
2023-05-14T09:25:13.164Z,17.96
2023-05-14T09:27:40.812Z,18.03
2023-05-14T09:30:10.317Z,18.13
2023-05-14T09:32:50.362Z,18.23
2023-05-14T09:35:23.167Z,18.34
2023-05-14T09:37:52.570Z,18.45
2023-05-14T09:40:21.639Z,18.54
2023-05-14T09:42:49.646Z,18.63
2023-05-14T09:45:17.336Z,18.75
2023-05-14T09:47:45.452Z,18.87
2023-05-14T09:50:13.466Z,18.97
2023-05-14T09:52:41.330Z,19.10
2023-05-14T09:55:09.258Z,19.29
2023-05-14T09:57:37.285Z,19.61
2023-05-14T10:00:05.733Z,20.00
2023-05-14T10:02:41.512Z,20.40
2023-05-14T10:05:10.497Z,20.77
2023-05-14T10:07:44.567Z,21.07
2023-05-14T10:10:15.736Z,21.32
2023-05-14T10:12:44.751Z,21.54
2023-05-14T10:15:27.258Z,21.75
2023-05-14T10:17:56.483Z,21.93
2023-05-14T10:20:24.542Z,22.09
2023-05-14T10:22:52.668Z,22.20
2023-05-14T10:25:20.747Z,22.28
2023-05-14T10:27:48.837Z,22.38
2023-05-14T10:30:16.928Z,22.48
2023-05-14T10:32:44.666Z,22.58
2023-05-14T10:35:25.435Z,22.73
2023-05-14T10:37:53.053Z,22.88
2023-05-14T10:40:20.704Z,23.06
2023-05-14T10:42:48.370Z,23.24
2023-05-14T10:45:16.132Z,23.45
2023-05-14T10:47:45.914Z,23.61
2023-05-14T10:50:17.670Z,23.73
2023-05-14T10:52:45.611Z,23.85
2023-05-14T10:55:14.283Z,24.01
2023-05-14T10:57:45.357Z,24.16
2023-05-14T11:00:14.164Z,24.24
2023-05-14T11:02:43.248Z,24.26
2023-05-14T11:05:17.898Z,24.27
2023-05-14T11:07:47.500Z,24.31
2023-05-14T11:10:16.970Z,24.30
2023-05-14T11:12:46.052Z,24.27
2023-05-14T11:15:15.085Z,24.29
2023-05-14T11:17:43.631Z,24.29
2023-05-14T11:20:12.016Z,24.31
2023-05-14T11:22:40.397Z,24.33
2023-05-14T11:25:08.679Z,24.30
2023-05-14T11:27:39.451Z,24.22
2023-05-14T11:30:16.877Z,24.11
2023-05-14T11:32:48.543Z,24.03
2023-05-14T11:35:17.126Z,23.99
2023-05-14T11:37:50.641Z,23.93
2023-05-14T11:40:18.776Z,23.87
2023-05-14T11:42:46.699Z,23.84
2023-05-14T11:45:21.107Z,23.77
2023-05-14T11:47:48.835Z,23.65
2023-05-14T11:50:16.593Z,23.55
2023-05-14T11:52:44.217Z,23.46
2023-05-14T11:55:12.686Z,23.39
2023-05-14T11:57:41.148Z,23.35
2023-05-14T12:00:14.534Z,23.32
2023-05-14T12:02:42.283Z,23.32
2023-05-14T12:05:12.980Z,23.30
2023-05-14T12:07:41.983Z,23.24
2023-05-14T12:10:12.332Z,23.17
2023-05-14T12:12:40.026Z,23.05
2023-05-14T12:15:14.195Z,22.94
2023-05-14T12:17:41.901Z,22.91
2023-05-14T12:20:11.049Z,22.93
2023-05-14T12:22:38.905Z,22.91
2023-05-14T12:25:12.372Z,22.89
2023-05-14T12:27:40.013Z,22.83
2023-05-14T12:32:42.127Z,22.82
2023-05-14T12:35:09.874Z,22.85
2023-05-14T12:37:39.823Z,22.86
2023-05-14T12:40:09.684Z,22.78
2023-05-14T12:42:37.562Z,22.75
2023-05-14T12:45:08.053Z,22.73
2023-05-14T12:47:36.333Z,22.69
2023-05-14T12:50:04.732Z,22.64
2023-05-14T12:52:38.604Z,22.59
2023-05-14T12:55:08.972Z,22.54
2023-05-14T12:57:38.496Z,22.49
2023-05-14T13:00:08.130Z,22.46
2023-05-14T13:02:42.685Z,22.44
2023-05-14T13:05:12.038Z,22.45
2023-05-14T13:07:39.698Z,22.41
2023-05-14T13:10:08.213Z,22.28
2023-05-14T13:12:35.878Z,22.21
2023-05-14T13:15:03.735Z,22.19
2023-05-14T13:17:31.371Z,22.17
2023-05-14T13:19:59.054Z,22.14
2023-05-14T13:22:26.700Z,22.08
2023-05-14T13:24:54.357Z,22.03
2023-05-14T13:27:21.969Z,21.99
2023-05-14T13:29:49.804Z,21.99
2023-05-14T13:32:17.397Z,21.99
2023-05-14T13:34:45.101Z,22.01
2023-05-14T13:37:12.714Z,22.01
2023-05-14T13:39:41.164Z,22.01
2023-05-14T13:42:09.119Z,22.02
2023-05-14T13:44:36.880Z,22.03
2023-05-14T13:47:04.941Z,22.02
2023-05-14T13:49:32.596Z,22.05
2023-05-14T13:52:00.395Z,22.11
2023-05-14T13:54:27.981Z,22.18
2023-05-14T13:56:56.128Z,22.26
2023-05-14T13:59:23.993Z,22.32
2023-05-14T14:01:51.901Z,22.38
2023-05-14T14:04:20.056Z,22.39
2023-05-14T14:06:47.658Z,22.33
2023-05-14T14:09:15.473Z,22.26
2023-05-14T14:11:43.314Z,22.25
2023-05-14T14:14:12.059Z,22.25
2023-05-14T14:16:39.742Z,22.24
2023-05-14T14:19:07.662Z,22.22
2023-05-14T14:21:35.777Z,22.19
2023-05-14T14:24:03.875Z,22.15
2023-05-14T14:26:31.635Z,22.08
2023-05-14T14:28:59.245Z,21.99
2023-05-14T14:31:26.883Z,21.92
2023-05-14T14:33:54.495Z,21.82
2023-05-14T14:36:22.110Z,21.71
2023-05-14T14:38:49.694Z,21.66
2023-05-14T14:41:17.292Z,21.62
2023-05-14T14:43:44.896Z,21.61
2023-05-14T14:46:12.624Z,21.59
2023-05-14T14:48:41.418Z,21.55
2023-05-14T14:51:09.228Z,21.50
2023-05-14T14:53:37.202Z,21.46
2023-05-14T14:56:05.517Z,21.42
2023-05-14T14:58:33.163Z,21.35
2023-05-14T15:01:01.408Z,21.26
2023-05-14T15:03:29.308Z,21.17
2023-05-14T15:05:57.425Z,21.11
2023-05-14T15:08:26.749Z,21.06
2023-05-14T15:10:57.456Z,21.05
2023-05-14T15:13:25.833Z,21.02
2023-05-14T15:15:53.499Z,20.99
2023-05-14T15:18:21.302Z,20.95
2023-05-14T15:20:48.904Z,20.94
2023-05-14T15:23:16.507Z,20.92
2023-05-14T15:25:44.211Z,20.90
2023-05-14T15:28:11.821Z,20.86
2023-05-14T15:30:39.498Z,20.83
2023-05-14T15:33:07.776Z,20.79
2023-05-14T15:35:36.538Z,20.74
2023-05-14T15:38:04.145Z,20.64
2023-05-14T15:40:33.113Z,20.59
2023-05-14T15:43:00.792Z,20.56
2023-05-14T15:45:28.515Z,20.53
2023-05-14T15:47:56.195Z,20.47
2023-05-14T15:50:24.372Z,20.42
2023-05-14T15:52:52.040Z,20.36
2023-05-14T15:55:19.651Z,20.31
2023-05-14T15:57:47.270Z,20.26
2023-05-14T16:00:15.421Z,20.19
2023-05-14T16:02:43.156Z,20.16
2023-05-14T16:05:10.985Z,20.12
2023-05-14T16:07:38.824Z,20.09
2023-05-14T16:10:07.096Z,20.04
2023-05-14T16:12:34.754Z,19.99
2023-05-14T16:15:02.363Z,19.94
2023-05-14T16:17:32.712Z,19.90
2023-05-14T16:20:01.133Z,19.85
2023-05-14T16:22:29.490Z,19.78
2023-05-14T16:24:57.078Z,19.73
2023-05-14T16:27:25.031Z,19.66
2023-05-14T16:29:52.697Z,19.59
2023-05-14T16:32:21.673Z,19.52
2023-05-14T16:34:52.140Z,19.44
2023-05-14T16:37:22.837Z,19.38
2023-05-14T16:39:50.814Z,19.33
2023-05-14T16:42:18.384Z,19.27
2023-05-14T16:44:45.979Z,19.21
2023-05-14T16:47:13.569Z,19.17
2023-05-14T16:49:41.157Z,19.13
2023-05-14T16:52:08.761Z,19.10
2023-05-14T16:54:36.597Z,19.06
2023-05-14T16:57:04.604Z,19.00
2023-05-14T16:59:32.218Z,18.96
2023-05-14T17:01:59.904Z,18.92
2023-05-14T17:04:27.744Z,18.89
2023-05-14T17:06:57.341Z,18.84
2023-05-14T17:09:25.035Z,18.80
2023-05-14T17:11:52.901Z,18.75
2023-05-14T17:14:20.732Z,18.71
2023-05-14T17:16:48.574Z,18.66
2023-05-14T17:19:16.194Z,18.63
2023-05-14T17:21:43.845Z,18.57
2023-05-14T17:24:11.437Z,18.55
2023-05-14T17:26:39.039Z,18.52
2023-05-14T17:29:06.620Z,18.49
2023-05-14T17:31:34.294Z,18.45
2023-05-14T17:34:02.065Z,18.42
2023-05-14T17:36:29.755Z,18.37
2023-05-14T17:38:57.299Z,18.34
2023-05-14T17:41:24.936Z,18.31
2023-05-14T17:43:52.566Z,18.28
2023-05-14T17:46:20.254Z,18.23
2023-05-14T17:48:47.934Z,18.19
2023-05-14T17:51:15.604Z,18.15
2023-05-14T17:53:43.301Z,18.09
2023-05-14T17:56:10.905Z,18.04
2023-05-14T17:58:38.478Z,17.99
2023-05-14T18:01:06.205Z,17.93
2023-05-14T18:03:34.402Z,17.88
2023-05-14T18:06:02.166Z,17.83
2023-05-14T18:08:29.818Z,17.80
2023-05-14T18:10:58.503Z,17.75
2023-05-14T18:13:26.695Z,17.71
2023-05-14T18:15:56.546Z,17.67
2023-05-14T18:18:24.604Z,17.64
2023-05-14T18:20:52.550Z,17.60
2023-05-14T18:23:20.245Z,17.56
2023-05-14T18:25:48.274Z,17.52
2023-05-14T18:28:15.944Z,17.47
2023-05-14T18:30:45.308Z,17.38
2023-05-14T18:33:13.083Z,17.28
2023-05-14T18:35:42.152Z,17.19
2023-05-14T18:38:11.827Z,17.09
2023-05-14T18:40:39.545Z,16.96
2023-05-14T18:43:07.173Z,16.83
2023-05-14T18:45:34.849Z,16.68
2023-05-14T18:48:02.589Z,16.54
2023-05-14T18:50:30.721Z,16.40
2023-05-14T18:52:58.328Z,16.27
2023-05-14T18:55:26.530Z,16.17
2023-05-14T18:57:54.419Z,16.07
2023-05-14T19:00:22.191Z,15.98
2023-05-14T19:02:49.922Z,15.89
2023-05-14T19:05:17.763Z,15.83
2023-05-14T19:07:48.078Z,15.75
2023-05-14T19:10:15.885Z,15.71
2023-05-14T19:12:43.563Z,15.68
2023-05-14T19:15:11.690Z,15.67
2023-05-14T19:17:39.365Z,15.66
2023-05-14T19:20:08.094Z,15.64
2023-05-14T19:22:35.698Z,15.61
2023-05-14T19:25:04.393Z,15.57
2023-05-14T19:27:32.949Z,15.53
2023-05-14T19:30:00.856Z,15.47
2023-05-14T19:32:28.557Z,15.42
2023-05-14T19:34:56.320Z,15.36
2023-05-14T19:37:23.922Z,15.31
2023-05-14T19:39:51.553Z,15.25
2023-05-14T19:42:19.182Z,15.20
2023-05-14T19:44:46.743Z,15.18
2023-05-14T19:47:14.841Z,15.17
2023-05-14T19:49:42.583Z,15.18
2023-05-14T19:52:11.727Z,15.17
2023-05-14T19:54:39.386Z,15.13
2023-05-14T19:57:07.030Z,15.10
2023-05-14T19:59:34.826Z,15.05
2023-05-14T20:02:02.483Z,15.00
2023-05-14T20:04:30.208Z,14.95
2023-05-14T20:06:57.914Z,14.90
2023-05-14T20:09:25.938Z,14.87
2023-05-14T20:11:53.509Z,14.88
2023-05-14T20:14:21.105Z,14.89
2023-05-14T20:16:49.138Z,14.90
2023-05-14T20:19:16.879Z,14.87
2023-05-14T20:21:44.531Z,14.83
2023-05-14T20:24:12.241Z,14.80
2023-05-14T20:26:39.902Z,14.76
2023-05-14T20:29:09.088Z,14.70
2023-05-14T20:31:36.707Z,14.64
2023-05-14T20:34:04.317Z,14.61
2023-05-14T20:36:31.988Z,14.60
2023-05-14T20:39:00.610Z,14.61
2023-05-14T20:41:28.310Z,14.59
2023-05-14T20:43:55.869Z,14.58
2023-05-14T20:46:23.555Z,14.56
2023-05-14T20:48:53.577Z,14.53
2023-05-14T20:51:21.626Z,14.50
2023-05-14T20:53:49.212Z,14.45
2023-05-14T20:56:16.769Z,14.40
2023-05-14T20:58:44.658Z,14.37
2023-05-14T21:01:12.264Z,14.36
2023-05-14T21:03:40.129Z,14.38
2023-05-14T21:06:07.897Z,14.38
2023-05-14T21:08:37.665Z,14.36
2023-05-14T21:11:05.325Z,14.34
2023-05-14T21:13:32.962Z,14.31
2023-05-14T21:16:00.664Z,14.25
2023-05-14T21:18:30.852Z,14.19
2023-05-14T21:20:58.934Z,14.15
2023-05-14T21:23:26.645Z,14.15
2023-05-14T21:26:04.667Z,14.16
2023-05-14T21:28:32.263Z,14.17
2023-05-14T21:30:59.863Z,14.14
2023-05-14T21:33:27.636Z,14.09
2023-05-14T21:35:55.443Z,14.04
2023-05-14T21:38:23.065Z,13.99
2023-05-14T21:40:50.669Z,13.92
2023-05-14T21:43:18.433Z,13.89
2023-05-14T21:45:47.222Z,13.88
2023-05-14T21:48:14.859Z,13.89
2023-05-14T21:50:42.576Z,13.90
2023-05-14T21:53:10.188Z,13.90
2023-05-14T21:55:37.830Z,13.86
2023-05-14T21:58:06.830Z,13.80
2023-05-14T22:00:34.439Z,13.75
2023-05-14T22:03:02.091Z,13.70
2023-05-14T22:05:29.861Z,13.67
2023-05-14T22:07:57.475Z,13.67
2023-05-14T22:10:25.166Z,13.69
2023-05-14T22:12:52.772Z,13.69
2023-05-14T22:15:20.676Z,13.66
2023-05-14T22:17:48.379Z,13.62
2023-05-14T22:20:16.037Z,13.57
2023-05-14T22:22:43.655Z,13.53
2023-05-14T22:25:11.417Z,13.54
2023-05-14T22:27:39.027Z,13.56
2023-05-14T22:30:07.336Z,13.59
2023-05-14T22:32:35.016Z,13.60
2023-05-14T22:35:03.258Z,13.60
2023-05-14T22:37:30.868Z,13.58
2023-05-14T22:39:58.526Z,13.56
2023-05-14T22:42:27.253Z,13.53
2023-05-14T22:44:54.814Z,13.48
2023-05-14T22:47:22.467Z,13.44
2023-05-14T22:49:50.444Z,13.45
2023-05-14T22:52:18.927Z,13.47
2023-05-14T22:54:46.723Z,13.48
2023-05-14T22:57:14.462Z,13.47
2023-05-14T22:59:42.064Z,13.45
2023-05-14T23:02:09.788Z,13.43
2023-05-14T23:04:37.620Z,13.40
2023-05-14T23:07:05.228Z,13.38
2023-05-14T23:09:32.931Z,13.35
2023-05-14T23:12:00.547Z,13.35
2023-05-14T23:14:28.226Z,13.36
2023-05-14T23:16:55.843Z,13.37
2023-05-14T23:19:23.551Z,13.35
2023-05-14T23:21:51.258Z,13.34
2023-05-14T23:24:18.906Z,13.31
2023-05-14T23:26:46.496Z,13.27
2023-05-14T23:29:14.178Z,13.26
2023-05-14T23:31:43.628Z,13.27
2023-05-14T23:34:11.348Z,13.28
2023-05-14T23:36:39.781Z,13.29
2023-05-14T23:39:07.863Z,13.27
2023-05-14T23:41:35.499Z,13.25
2023-05-14T23:44:03.571Z,13.22
2023-05-14T23:46:31.212Z,13.19
2023-05-14T23:48:58.845Z,13.17
2023-05-14T23:51:29.263Z,13.17
2023-05-14T23:53:58.682Z,13.20
2023-05-14T23:56:27.467Z,13.22
2023-05-14T23:58:55.580Z,13.24
